Time;durP1;ratioP1;P1;durP2;ratioP2;P2;SDS_P1;SDS_P2;PMS_P1;PMS_P2;Temp;Humidity;BMP_temperature;BMP_pressure;BME280_temperature;BME280_humidity;BME280_pressure;Samples;Min_cycle;Max_cycle;Signal;HPM_P1;HPM_P2
2022/01/13 00:00:32;;;;;;;3.33;2.30;;;10.80;82.00;;;;;;4956566;28;20035;-73
2022/01/13 00:02:57;;;;;;;3.65;2.70;;;10.80;82.00;;;;;;4968836;28;20027;-73
2022/01/13 00:05:28;;;;;;;3.75;2.58;;;10.80;81.90;;;;;;4966697;28;20405;-73
2022/01/13 00:07:58;;;;;;;3.75;2.58;;;10.70;81.10;;;;;;4969386;28;20031;-73
2022/01/13 00:10:27;;;;;;;3.65;2.50;;;10.60;82.10;;;;;;4974632;28;20092;-73
2022/01/13 00:12:58;;;;;;;4.35;2.50;;;10.70;82.20;;;;;;4972038;28;20441;-73
2022/01/13 00:15:37;;;;;;;4.45;2.85;;;10.70;81.70;;;;;;4941879;28;20035;-73
2022/01/13 00:18:12;;;;;;;4.35;2.75;;;10.70;81.70;;;;;;4965841;28;20058;-73
2022/01/13 00:25:59;;;;;;;4.10;2.67;;;10.70;81.90;;;;;;4964142;28;20058;-73
2022/01/13 00:28:25;;;;;;;4.88;3.35;;;10.70;82.00;;;;;;4962081;28;20489;-73
2022/01/13 00:30:54;;;;;;;5.03;3.00;;;10.60;80.70;;;;;;4965561;28;20051;-73
2022/01/13 00:33:24;;;;;;;4.35;2.75;;;10.50;80.80;;;;;;4966976;28;20042;-73
2022/01/13 00:35:50;;;;;;;5.50;3.05;;;10.50;81.40;;;;;;4963261;28;20070;-73
2022/01/13 00:38:16;;;;;;;3.67;2.80;;;10.60;81.50;;;;;;4964306;28;20023;-73
2022/01/13 00:40:41;;;;;;;5.90;3.80;;;10.60;80.30;;;;;;4964132;28;20094;-73
2022/01/13 00:43:07;;;;;;;5.72;3.90;;;10.50;80.50;;;;;;4959570;28;20064;-73
2022/01/13 00:45:33;;;;;;;4.85;3.50;;;10.40;80.40;;;;;;4960104;28;20078;-73
2022/01/13 00:47:58;;;;;;;5.15;3.75;;;10.30;80.80;;;;;;4963780;28;20046;-73
2022/01/13 00:50:24;;;;;;;4.75;3.20;;;10.30;80.40;;;;;;4963810;28;20035;-72
2022/01/13 00:52:49;;;;;;;4.85;3.20;;;10.30;80.70;;;;;;4963711;28;20053;-73
2022/01/13 00:55:20;;;;;;;4.60;3.28;;;10.30;81.20;;;;;;4941808;28;20153;-73
2022/01/13 00:57:47;;;;;;;4.15;2.90;;;10.30;80.60;;;;;;4958833;28;20395;-73
2022/01/13 01:00:13;;;;;;;4.88;3.42;;;10.20;80.80;;;;;;4965821;28;20019;-73
2022/01/13 01:02:38;;;;;;;5.28;3.63;;;10.20;80.30;;;;;;4962082;28;20027;-73
2022/01/13 01:05:04;;;;;;;4.43;3.20;;;10.20;80.70;;;;;;4962743;28;20408;-73
2022/01/13 01:07:30;;;;;;;3.72;2.95;;;10.30;80.90;;;;;;4974556;28;20027;-73
2022/01/13 01:09:58;;;;;;;4.57;3.30;;;10.20;80.20;;;;;;4958944;28;20031;-73
2022/01/13 01:12:24;;;;;;;4.20;3.00;;;10.00;79.20;;;;;;4970091;28;20126;-73
2022/01/13 01:14:55;;;;;;;3.85;2.95;;;9.90;79.60;;;;;;4964651;28;20110;-73
2022/01/13 01:17:21;;;;;;;3.13;2.83;;;9.90;80.00;;;;;;4961691;28;20035;-73
2022/01/13 01:19:50;;;;;;;3.53;2.45;;;9.90;79.80;;;;;;4963450;28;20449;-73
2022/01/13 01:27:40;;;;;;;;;;;9.80;80.20;;;;;;4955425;29;20027;-73
2022/01/13 01:30:21;;;;;;;3.50;2.50;;;9.70;79.80;;;;;;4968657;28;19910;-72
2022/01/13 01:32:47;;;;;;;3.22;2.75;;;9.70;80.30;;;;;;4964489;28;20098;-73
2022/01/13 01:35:14;;;;;;;3.25;2.50;;;9.80;81.20;;;;;;4964886;28;20035;-72
2022/01/13 01:37:41;;;;;;;2.88;2.50;;;9.90;80.60;;;;;;4949245;28;20090;-72
2022/01/13 01:40:09;;;;;;;3.38;3.03;;;9.90;80.40;;;;;;4937433;28;20086;-72
2022/01/13 01:42:34;;;;;;;3.65;2.80;;;10.00;79.80;;;;;;4958884;28;20034;-72
2022/01/13 01:45:01;;;;;;;3.47;2.80;;;9.80;79.30;;;;;;4962840;28;20027;-72
2022/01/13 01:47:31;;;;;;;2.72;2.42;;;9.80;80.40;;;;;;4962724;28;20027;-72
2022/01/13 01:50:09;;;;;;;2.60;2.13;;;9.80;80.50;;;;;;4949359;28;20490;-72
2022/01/13 01:52:35;;;;;;;2.45;2.25;;;9.90;80.90;;;;;;4973526;28;20054;-72
2022/01/13 01:55:01;;;;;;;2.70;2.50;;;9.90;80.00;;;;;;4957807;28;20023;-72
2022/01/13 01:57:26;;;;;;;3.10;2.80;;;9.90;80.10;;;;;;4959462;28;20074;-72
2022/01/13 01:59:53;;;;;;;3.13;2.50;;;9.80;79.50;;;;;;4962463;28;20588;-72
2022/01/13 02:02:20;;;;;;;2.95;2.20;;;9.90;80.40;;;;;;4962584;28;20042;-72
2022/01/13 02:04:46;;;;;;;2.80;2.50;;;10.00;80.30;;;;;;4962292;28;20441;-72
2022/01/13 02:07:13;;;;;;;2.50;2.20;;;10.00;80.20;;;;;;4959112;28;20584;-72
2022/01/13 02:09:42;;;;;;;2.30;2.10;;;10.00;80.30;;;;;;4957666;28;20023;-72
2022/01/13 02:12:18;;;;;;;2.90;2.33;;;10.00;81.10;;;;;;4968588;28;20046;-72
2022/01/13 02:14:55;;;;;;;2.47;2.20;;;10.00;79.80;;;;;;4964242;28;20028;-72
2022/01/13 02:17:26;;;;;;;2.70;2.45;;;9.90;79.90;;;;;;4962302;28;20035;-72
2022/01/13 02:19:54;;;;;;;2.85;2.38;;;9.90;79.50;;;;;;4947151;28;20031;-72
2022/01/13 02:22:21;;;;;;;3.78;3.28;;;9.70;79.10;;;;;;4972981;28;20157;-72
2022/01/13 02:24:47;;;;;;;4.47;3.08;;;9.60;79.20;;;;;;4957274;28;20027;-72
2022/01/13 02:27:12;;;;;;;3.78;3.20;;;9.50;79.40;;;;;;4960907;28;20038;-73
2022/01/13 02:29:38;;;;;;;3.45;3.10;;;9.40;79.60;;;;;;4965815;28;20102;-73
2022/01/13 02:32:05;;;;;;;4.35;3.00;;;9.30;79.90;;;;;;4969166;28;20043;-72
2022/01/13 02:34:30;;;;;;;3.78;3.38;;;9.30;80.10;;;;;;4960655;28;20034;-72
2022/01/13 02:36:58;;;;;;;5.65;3.65;;;9.40;80.60;;;;;;4953500;28;20031;-72
2022/01/13 02:39:26;;;;;;;3.28;2.90;;;9.30;79.80;;;;;;4963959;28;20535;-72
2022/01/13 02:41:51;;;;;;;3.45;2.95;;;9.20;79.60;;;;;;4962660;28;20031;-72
2022/01/13 02:44:21;;;;;;;3.70;3.03;;;9.20;80.10;;;;;;4961899;28;20400;-72
2022/01/13 02:49:18;;;;;;;4.18;3.70;;;9.20;80.40;;;;;;4959100;28;20027;-72
2022/01/13 02:51:46;;;;;;;3.67;3.30;;;9.20;80.30;;;;;;4957234;28;20027;-72
2022/01/13 02:54:12;;;;;;;3.72;3.30;;;9.10;80.10;;;;;;4960325;28;20058;-72
2022/01/13 02:56:38;;;;;;;4.03;3.53;;;9.20;80.70;;;;;;4961684;28;20485;-72
2022/01/13 02:59:05;;;;;;;4.47;3.95;;;9.30;80.50;;;;;;4951074;28;20031;-72
2022/01/13 03:01:32;;;;;;;5.20;4.70;;;9.20;80.90;;;;;;4966641;28;20023;-72
2022/01/13 03:04:01;;;;;;;6.22;4.82;;;9.20;80.30;;;;;;4964237;28;20042;-71
2022/01/13 03:06:33;;;;;;;4.55;3.80;;;9.10;79.70;;;;;;4956319;28;20017;-72
2022/01/13 03:08:58;;;;;;;5.25;4.40;;;9.00;79.30;;;;;;4961308;28;20031;-72
2022/01/13 03:11:31;;;;;;;4.10;3.47;;;8.90;79.50;;;;;;4960027;28;20138;-72
2022/01/13 03:13:57;;;;;;;4.43;3.08;;;8.80;79.10;;;;;;4948866;28;20047;-71
2022/01/13 03:16:23;;;;;;;3.30;2.88;;;8.70;79.60;;;;;;4972621;28;20026;-71
2022/01/13 03:18:49;;;;;;;4.03;2.80;;;8.70;79.50;;;;;;4939729;28;20058;-72
2022/01/13 03:21:15;;;;;;;3.35;2.95;;;8.70;80.00;;;;;;4957854;28;20023;-72
2022/01/13 03:23:41;;;;;;;4.22;2.90;;;8.80;80.20;;;;;;4961117;28;20083;-72
2022/01/13 03:26:07;;;;;;;3.08;2.53;;;8.90;80.10;;;;;;4961479;28;20379;-72
2022/01/13 03:28:40;;;;;;;3.38;2.40;;;8.90;80.00;;;;;;4961091;28;20073;-71
2022/01/13 03:31:07;;;;;;;3.20;2.60;;;8.90;80.00;;;;;;4957444;28;20033;-71
2022/01/13 03:33:34;;;;;;;4.43;3.00;;;9.00;80.30;;;;;;4965891;28;20066;-72
2022/01/13 03:36:02;;;;;;;3.22;2.70;;;8.90;79.30;;;;;;4962184;28;20034;-72
2022/01/13 03:38:29;;;;;;;3.25;2.75;;;8.90;79.60;;;;;;4963882;28;20113;-72
2022/01/13 03:40:55;;;;;;;2.67;2.35;;;9.00;79.70;;;;;;4969954;28;20042;-72
2022/01/13 03:43:21;;;;;;;2.60;2.40;;;8.80;79.00;;;;;;4959176;28;20027;-72
2022/01/13 03:45:47;;;;;;;2.95;2.55;;;9.00;80.10;;;;;;4973217;28;20047;-72
2022/01/13 03:48:13;;;;;;;3.95;3.20;;;9.00;79.80;;;;;;4963535;28;20058;-72
2022/01/13 03:50:43;;;;;;;3.25;2.63;;;9.00;79.40;;;;;;4964693;28;20019;-72
2022/01/13 03:53:27;;;;;;;3.13;2.53;;;9.00;79.60;;;;;;4964839;28;20039;-72
2022/01/13 03:56:29;;;;;;;3.83;3.10;;;9.10;80.30;;;;;;4964724;28;20032;-72
2022/01/13 03:59:17;;;;;;;5.07;4.28;;;9.20;80.30;;;;;;4963168;28;20038;-72
2022/01/13 04:01:59;;;;;;;5.50;4.57;;;9.30;79.60;;;;;;4959110;28;20035;-72
2022/01/13 04:04:25;;;;;;;5.82;4.18;;;9.30;79.30;;;;;;4965517;28;20064;-72
2022/01/13 04:07:09;;;;;;;4.25;3.72;;;9.30;79.70;;;;;;4975352;28;20033;-72
2022/01/13 04:09:34;;;;;;;4.50;3.95;;;9.40;79.80;;;;;;4956793;28;20078;-72
2022/01/13 04:12:05;;;;;;;4.28;3.45;;;9.40;79.10;;;;;;4971302;28;20027;-72
2022/01/13 04:14:39;;;;;;;3.83;3.50;;;9.40;79.40;;;;;;4968249;28;20055;-72
2022/01/13 04:17:05;;;;;;;5.70;3.22;;;9.40;79.70;;;;;;4964410;28;20489;-72
2022/01/13 04:19:31;;;;;;;3.35;3.00;;;9.50;79.40;;;;;;4941313;29;20074;-72
2022/01/13 04:21:56;;;;;;;5.90;4.22;;;9.40;79.20;;;;;;4974427;28;20034;-72
2022/01/13 04:24:22;;;;;;;4.72;3.75;;;9.30;78.70;;;;;;4971581;28;20069;-72
2022/01/13 04:26:48;;;;;;;5.40;4.05;;;9.20;79.10;;;;;;4965570;28;20474;-72
2022/01/13 04:31:42;;;;;;;5.10;3.80;;;9.00;79.60;;;;;;4963966;28;20129;-72
2022/01/13 04:34:08;;;;;;;4.30;3.60;;;9.10;80.10;;;;;;4962161;28;20474;-72
2022/01/13 04:36:34;;;;;;;5.53;3.78;;;9.10;80.00;;;;;;4954475;28;20030;-72
2022/01/13 04:39:00;;;;;;;4.82;3.75;;;9.20;80.10;;;;;;4964128;28;20043;-72
2022/01/13 04:41:45;;;;;;;6.15;3.95;;;9.10;79.20;;;;;;4963939;28;20046;-72
2022/01/13 04:44:17;;;;;;;4.35;3.60;;;9.00;79.70;;;;;;4964092;28;20043;-72
2022/01/13 04:46:44;;;;;;;4.38;3.42;;;9.10;79.90;;;;;;4963551;28;20130;-72
2022/01/13 04:49:10;;;;;;;5.45;4.07;;;9.10;79.80;;;;;;4959909;28;20037;-72
2022/01/13 04:51:37;;;;;;;5.50;4.47;;;9.00;79.40;;;;;;4958145;28;20023;-72
2022/01/13 04:54:03;;;;;;;5.97;4.53;;;9.00;79.60;;;;;;4963130;28;20039;-72
2022/01/13 04:56:32;;;;;;;5.35;4.15;;;8.90;78.90;;;;;;4963551;28;20031;-71
2022/01/13 04:58:59;;;;;;;5.00;3.75;;;8.80;79.50;;;;;;4963198;28;20031;-72
2022/01/13 05:01:24;;;;;;;5.28;3.97;;;8.80;80.10;;;;;;4962023;28;20122;-72
2022/01/13 05:03:50;;;;;;;6.10;4.00;;;8.90;80.00;;;;;;4958515;28;20111;-72
2022/01/13 05:06:19;;;;;;;4.35;3.88;;;8.90;80.20;;;;;;4970935;28;20035;-72
2022/01/13 05:08:48;;;;;;;4.78;4.03;;;8.90;80.30;;;;;;4964225;28;20035;-72
2022/01/13 05:11:15;;;;;;;5.68;4.20;;;8.90;79.70;;;;;;4963462;28;20097;-72
2022/01/13 05:13:41;;;;;;;6.90;5.13;;;8.90;80.00;;;;;;4963359;28;20509;-72
2022/01/13 05:16:09;;;;;;;6.75;4.65;;;8.80;79.70;;;;;;4959495;28;20033;-72
2022/01/13 05:18:51;;;;;;;6.80;4.20;;;8.70;79.80;;;;;;4958603;28;20396;-72
2022/01/13 05:21:21;;;;;;;5.07;3.75;;;8.70;80.30;;;;;;4959643;28;20041;-72
2022/01/13 05:23:49;;;;;;;5.18;3.83;;;8.70;80.50;;;;;;4963214;28;20125;-72
2022/01/13 05:26:15;;;;;;;6.55;4.88;;;8.80;80.40;;;;;;4963224;28;20061;-71
2022/01/13 05:28:41;;;;;;;5.95;4.20;;;8.80;80.50;;;;;;4963127;28;20473;-72
2022/01/13 05:31:07;;;;;;;6.55;4.28;;;8.80;80.70;;;;;;4959081;28;20470;-73
2022/01/13 05:33:33;;;;;;;6.30;4.50;;;8.90;80.80;;;;;;4958834;28;20039;-72
2022/01/13 05:36:00;;;;;;;5.45;4.15;;;8.90;80.60;;;;;;4962974;28;20402;-72
2022/01/13 05:38:27;;;;;;;5.55;4.30;;;9.00;81.00;;;;;;4962897;28;20397;-73
2022/01/13 05:40:53;;;;;;;4.63;3.72;;;9.00;80.80;;;;;;4962941;28;20078;-73
2022/01/13 05:43:19;;;;;;;6.22;4.15;;;9.00;80.60;;;;;;4958709;28;20026;-71
2022/01/13 05:45:45;;;;;;;5.53;3.85;;;9.00;80.60;;;;;;4962858;28;20079;-71
2022/01/13 05:48:11;;;;;;;5.95;3.95;;;9.00;80.60;;;;;;4969599;28;20073;-71
2022/01/13 05:50:37;;;;;;;5.60;4.07;;;9.00;80.60;;;;;;4965693;28;20054;-71
2022/01/13 05:53:04;;;;;;;5.38;3.80;;;9.00;80.30;;;;;;4962470;28;20039;-71
2022/01/13 05:55:30;;;;;;;6.47;4.10;;;8.90;80.50;;;;;;4961930;28;20026;-71
2022/01/13 05:57:56;;;;;;;5.35;3.78;;;8.80;80.30;;;;;;4964905;28;20089;-71
2022/01/13 06:00:23;;;;;;;4.70;3.78;;;8.90;81.10;;;;;;4969833;28;20097;-71
2022/01/13 06:02:50;;;;;;;5.40;4.35;;;9.00;81.20;;;;;;4968121;28;20046;-71
2022/01/13 06:05:16;;;;;;;6.47;4.78;;;8.90;80.70;;;;;;4968336;28;20015;-71
2022/01/13 06:07:42;;;;;;;6.93;5.32;;;8.90;80.50;;;;;;4962634;28;20081;-71
2022/01/13 06:10:10;;;;;;;8.35;6.30;;;8.90;80.70;;;;;;4957869;28;20702;-71
2022/01/13 06:12:39;;;;;;;7.45;5.80;;;8.70;80.30;;;;;;4957953;28;20031;-71
2022/01/13 06:15:10;;;;;;;7.00;5.72;;;8.70;81.30;;;;;;4969149;28;20033;-71
2022/01/13 06:17:37;;;;;;;8.18;6.70;;;8.70;81.20;;;;;;4965224;28;20062;-71
2022/01/13 06:20:05;;;;;;;11.43;7.50;;;8.70;81.00;;;;;;4942982;28;20019;-71
2022/01/13 06:22:31;;;;;;;9.95;7.53;;;8.60;81.20;;;;;;4961435;28;20026;-71
2022/01/13 06:24:57;;;;;;;8.55;6.88;;;8.50;81.30;;;;;;4957767;28;20023;-72
2022/01/13 06:27:23;;;;;;;7.80;6.30;;;8.50;81.70;;;;;;4959626;28;20094;-71
2022/01/13 06:29:53;;;;;;;8.65;6.38;;;8.60;82.30;;;;;;4962105;28;20522;-72
2022/01/13 06:32:19;;;;;;;8.60;6.07;;;8.70;82.30;;;;;;4962007;28;20031;-72
2022/01/13 06:34:45;;;;;;;8.90;6.47;;;8.70;82.10;;;;;;4961831;28;20019;-71
2022/01/13 06:37:11;;;;;;;8.57;6.00;;;8.80;82.00;;;;;;4958717;28;20037;-72
2022/01/13 06:39:37;;;;;;;6.65;5.20;;;8.60;81.40;;;;;;4956424;28;20027;-72
2022/01/13 06:42:03;;;;;;;7.05;5.20;;;8.40;81.30;;;;;;4961284;28;20123;-72
2022/01/13 06:44:29;;;;;;;7.38;5.45;;;8.40;82.80;;;;;;4961520;28;20489;-71
2022/01/13 06:46:54;;;;;;;7.80;5.43;;;8.30;82.40;;;;;;4961733;28;20043;-72
2022/01/13 06:49:20;;;;;;;8.73;5.70;;;8.20;82.20;;;;;;4959543;28;20417;-71
2022/01/13 06:51:46;;;;;;;8.38;5.60;;;8.10;82.70;;;;;;4956959;28;20817;-70
2022/01/13 06:54:12;;;;;;;8.30;4.90;;;7.90;83.10;;;;;;4960663;28;20078;-71
2022/01/13 06:56:37;;;;;;;6.65;5.03;;;7.90;83.70;;;;;;4964954;28;20031;-71
2022/01/13 06:59:09;;;;;;;5.43;4.35;;;8.00;83.60;;;;;;4968581;28;20089;-71
2022/01/13 07:01:35;;;;;;;7.60;5.00;;;8.10;84.10;;;;;;4972369;28;20420;-71
2022/01/13 07:04:00;;;;;;;6.05;4.32;;;8.20;84.00;;;;;;4957269;28;20508;-71
2022/01/13 07:06:26;;;;;;;5.93;4.22;;;8.30;83.80;;;;;;4962640;28;20517;-71
2022/01/13 07:08:52;;;;;;;6.65;4.40;;;8.40;83.80;;;;;;4953706;28;20022;-71
2022/01/13 07:11:17;;;;;;;6.80;4.95;;;8.50;83.90;;;;;;4971957;28;20035;-71
2022/01/13 07:13:43;;;;;;;7.30;4.65;;;8.50;82.80;;;;;;4967751;28;20039;-71
2022/01/13 07:16:09;;;;;;;5.57;4.38;;;8.50;83.20;;;;;;4971424;28;20027;-71
2022/01/13 07:18:40;;;;;;;5.75;4.22;;;8.60;83.40;;;;;;4970463;28;20117;-71
2022/01/13 07:21:09;;;;;;;7.15;5.10;;;8.70;83.00;;;;;;4970567;28;20164;-71
2022/01/13 07:23:35;;;;;;;7.03;5.15;;;8.50;82.30;;;;;;4975860;28;20113;-73
2022/01/13 07:26:02;;;;;;;5.45;4.50;;;8.50;82.50;;;;;;4967701;28;20027;-68
2022/01/13 07:28:31;;;;;;;8.05;5.70;;;8.60;83.40;;;;;;4971531;28;20488;-68
2022/01/13 07:30:57;;;;;;;7.28;5.82;;;8.70;82.90;;;;;;4968937;28;20105;-68
2022/01/13 07:33:23;;;;;;;8.13;6.00;;;8.70;82.70;;;;;;4973736;28;20146;-65
2022/01/13 07:35:49;;;;;;;6.07;4.68;;;8.80;82.10;;;;;;4974878;28;20106;-71
2022/01/13 07:38:15;;;;;;;6.13;4.00;;;8.80;82.20;;;;;;4975131;28;20499;-71
2022/01/13 07:40:40;;;;;;;5.95;4.25;;;8.80;82.40;;;;;;4972326;28;20031;-72
2022/01/13 07:43:06;;;;;;;5.00;3.80;;;8.70;82.20;;;;;;4961057;28;20058;-71
2022/01/13 07:45:32;;;;;;;5.07;3.88;;;8.70;82.10;;;;;;4975101;28;20117;-71
2022/01/13 07:47:57;;;;;;;5.00;3.60;;;8.70;82.00;;;;;;4974548;28;20041;-71
2022/01/13 07:50:23;;;;;;;5.28;3.70;;;8.70;82.10;;;;;;4974470;28;20617;-75
2022/01/13 07:52:49;;;;;;;5.22;3.90;;;8.60;82.20;;;;;;4957644;28;20047;-69
2022/01/13 07:55:16;;;;;;;5.25;3.45;;;8.60;82.10;;;;;;4974741;28;20547;-73
2022/01/13 07:57:41;;;;;;;6.72;4.10;;;8.70;82.80;;;;;;4973180;28;20485;-71
2022/01/13 08:00:10;;;;;;;6.28;3.78;;;8.60;81.80;;;;;;4972072;28;20041;-73
2022/01/13 08:02:36;;;;;;;6.65;4.10;;;8.60;82.20;;;;;;4962550;28;20517;-72
2022/01/13 08:05:02;;;;;;;6.30;4.57;;;8.50;81.80;;;;;;4967450;28;20023;-66
2022/01/13 08:07:28;;;;;;;6.72;4.78;;;8.50;81.90;;;;;;4974700;28;20133;-74
2022/01/13 08:09:53;;;;;;;6.05;4.30;;;8.40;81.90;;;;;;4963900;28;20457;-78
2022/01/13 08:12:19;;;;;;;5.80;4.07;;;8.20;81.60;;;;;;4970750;28;20042;-74
2022/01/13 08:14:45;;;;;;;5.45;4.07;;;8.20;82.20;;;;;;4965275;28;20058;-73
2022/01/13 08:19:45;;;;;;;5.55;4.05;;;8.20;82.00;;;;;;4972617;28;20103;-77
2022/01/13 08:19:56;;;;;;;6.70;4.25;;;8.10;82.10;;;;;;4972752;28;20453;-73
2022/01/13 08:22:21;;;;;;;5.60;4.05;;;8.10;82.50;;;;;;4952930;29;20537;-72
2022/01/13 08:24:47;;;;;;;6.85;4.72;;;8.10;82.40;;;;;;4955130;28;20022;-73
2022/01/13 08:27:13;;;;;;;7.57;4.57;;;8.00;81.90;;;;;;4963554;28;20035;-77
2022/01/13 08:29:38;;;;;;;6.70;4.53;;;7.90;82.10;;;;;;4952540;28;20113;-74
2022/01/13 08:32:04;;;;;;;6.95;4.80;;;8.00;83.00;;;;;;4969482;28;20042;-73
2022/01/13 08:34:30;;;;;;;8.10;5.05;;;8.00;82.60;;;;;;4963350;28;20540;-73
2022/01/13 08:36:55;;;;;;;7.30;5.00;;;7.90;82.30;;;;;;4973088;28;20062;-73
2022/01/13 08:39:21;;;;;;;6.30;4.53;;;8.00;83.00;;;;;;4964067;28;20404;-75
2022/01/13 08:41:48;;;;;;;8.10;5.40;;;8.10;83.10;;;;;;4969128;28;20412;-72
2022/01/13 08:44:14;;;;;;;7.00;5.20;;;8.00;82.10;;;;;;4968761;28;20057;-70
2022/01/13 08:46:40;;;;;;;7.88;5.32;;;8.10;82.60;;;;;;4963722;28;20048;-72
2022/01/13 08:49:05;;;;;;;7.88;5.10;;;8.20;83.80;;;;;;4973982;28;20035;-71
2022/01/13 08:51:31;;;;;;;8.10;5.53;;;8.10;82.10;;;;;;4970227;28;20478;-71
2022/01/13 08:53:57;;;;;;;9.80;6.57;;;8.20;82.70;;;;;;4947999;28;20050;-76
2022/01/13 08:56:23;;;;;;;9.63;6.28;;;8.20;82.00;;;;;;4962675;28;20059;-76
2022/01/13 08:58:49;;;;;;;8.75;5.53;;;8.20;81.80;;;;;;4964822;28;20114;-74
2022/01/13 09:01:14;;;;;;;10.45;6.57;;;8.20;83.10;;;;;;4973588;28;20023;-74
2022/01/13 09:03:40;;;;;;;9.77;6.72;;;8.30;82.30;;;;;;4963231;28;20037;-76
2022/01/13 09:06:06;;;;;;;12.15;6.75;;;8.20;81.80;;;;;;4969828;28;20070;-75
2022/01/13 09:08:32;;;;;;;13.85;9.20;;;8.10;80.80;;;;;;4966625;28;20079;-74
2022/01/13 09:10:57;;;;;;;10.80;7.00;;;7.90;81.30;;;;;;4965623;28;20035;-73
2022/01/13 09:13:23;;;;;;;8.73;5.70;;;7.80;81.90;;;;;;4973528;28;20026;-74
2022/01/13 09:15:57;;;;;;;9.00;6.25;;;7.70;81.20;;;;;;4962591;28;20022;-74
2022/01/13 09:21:16;;;;;;;8.98;5.82;;;7.70;82.10;;;;;;4941580;29;20039;-68
2022/01/13 09:23:42;;;;;;;10.00;6.53;;;7.80;83.60;;;;;;4949222;29;20093;-77
2022/01/13 09:26:08;;;;;;;8.55;5.53;;;7.90;82.60;;;;;;4946924;28;20450;-80
2022/01/13 09:41:48;;;;;;;8.13;5.60;;;7.90;80.40;;;;;;5143275;27;20381;-79
2022/01/13 09:44:13;;;;;;;10.75;6.80;;;8.30;80.00;;;;;;5136121;27;20031;-78
2022/01/13 09:46:40;;;;;;;8.63;5.97;;;8.10;79.80;;;;;;5132279;27;20459;-74
2022/01/13 09:49:07;;;;;;;8.80;5.97;;;8.10;80.90;;;;;;5132645;27;20098;-74
2022/01/13 09:51:35;;;;;;;8.68;5.72;;;8.10;80.30;;;;;;5131542;27;20023;-75
2022/01/13 09:54:00;;;;;;;7.68;5.50;;;8.00;80.70;;;;;;5132343;27;20114;-75
2022/01/13 09:56:27;;;;;;;7.35;5.25;;;8.20;82.40;;;;;;5128843;27;20114;-73
2022/01/13 09:58:53;;;;;;;8.70;5.50;;;8.70;83.10;;;;;;5130274;27;20065;-73
2022/01/13 10:01:19;;;;;;;7.13;4.78;;;8.90;81.20;;;;;;5133167;27;20031;-74
2022/01/13 10:03:45;;;;;;;8.38;5.30;;;9.00;81.00;;;;;;5131440;27;20032;-74
2022/01/13 10:06:11;;;;;;;6.75;4.80;;;9.40;81.20;;;;;;5131788;27;20114;-71
2022/01/13 10:08:48;;;;;;;6.85;4.60;;;9.80;80.90;;;;;;5130354;27;20758;-71
2022/01/13 10:11:36;;;;;;;7.07;4.82;;;10.40;80.40;;;;;;5126489;27;20044;-70
2022/01/13 10:16:52;;;;;;;8.60;5.70;;;10.90;76.40;;;;;;5125225;27;20036;-69
2022/01/13 10:19:29;;;;;;;6.78;4.97;;;10.90;74.90;;;;;;5124426;27;20040;-78
2022/01/13 10:22:05;;;;;;;7.85;4.60;;;11.10;76.60;;;;;;5121559;27;20115;-71
2022/01/13 10:24:33;;;;;;;8.68;5.88;;;11.30;75.40;;;;;;5129222;27;20039;-74
2022/01/13 10:27:08;;;;;;;8.57;5.85;;;11.30;73.30;;;;;;5129190;27;20018;-72
2022/01/13 10:29:41;;;;;;;8.32;6.18;;;11.60;75.00;;;;;;5129090;27;20389;-73
2022/01/13 10:34:45;;;;;;;8.73;6.32;;;11.80;72.60;;;;;;4712580;23;19956;-73
2022/01/13 10:37:14;;;;;;;8.95;6.05;;;11.90;72.80;;;;;;5018537;28;20079;-74
2022/01/13 10:39:44;;;;;;;7.25;5.70;;;11.80;70.90;;;;;;5023815;28;20053;-68
2022/01/13 10:42:32;;;;;;;7.50;5.60;;;12.30;71.80;;;;;;5016329;28;20084;-69
2022/01/13 10:44:58;;;;;;;8.20;6.55;;;12.50;72.20;;;;;;5007174;28;20121;-73
2022/01/13 10:47:25;;;;;;;7.43;6.10;;;12.10;70.00;;;;;;5010450;28;20038;-75
2022/01/13 10:49:50;;;;;;;7.43;5.93;;;11.70;70.10;;;;;;5001846;28;20030;-77
2022/01/13 10:52:26;;;;;;;7.65;5.60;;;12.10;71.90;;;;;;5010864;28;20030;-73
2022/01/13 10:55:03;;;;;;;7.20;5.55;;;12.80;71.70;;;;;;5010352;28;20414;-74
2022/01/13 10:57:31;;;;;;;6.82;5.38;;;12.90;71.30;;;;;;5005913;28;21098;-75
2022/01/13 10:59:57;;;;;;;6.60;5.13;;;12.70;69.40;;;;;;5012344;28;20054;-73
2022/01/13 11:02:24;;;;;;;7.00;4.90;;;13.30;69.50;;;;;;5004121;28;20439;-70
2022/01/13 11:04:50;;;;;;;7.68;5.70;;;13.60;69.10;;;;;;5009068;28;20046;-70
2022/01/13 11:07:17;;;;;;;6.43;4.85;;;13.50;67.20;;;;;;5006522;28;20019;-70
2022/01/13 11:10:01;;;;;;;6.55;4.65;;;13.60;67.20;;;;;;5007648;28;20042;-69
2022/01/13 11:12:34;;;;;;;6.60;4.90;;;13.80;67.40;;;;;;5011215;28;20025;-69
2022/01/13 11:15:03;;;;;;;7.30;5.78;;;14.00;67.30;;;;;;5007688;28;20034;-74
2022/01/13 11:17:29;;;;;;;8.52;5.97;;;13.50;64.80;;;;;;5010285;28;20026;-75
2022/01/13 11:19:56;;;;;;;6.35;4.82;;;13.60;67.00;;;;;;5001965;28;20029;-72
2022/01/13 11:22:23;;;;;;;6.68;5.05;;;14.20;68.90;;;;;;5011646;28;20028;-79
2022/01/13 11:24:49;;;;;;;6.93;5.57;;;14.50;67.20;;;;;;5010707;28;20021;-71
2022/01/13 11:27:17;;;;;;;7.35;5.60;;;14.20;64.20;;;;;;5004795;28;20110;-71
2022/01/13 11:29:45;;;;;;;8.13;6.32;;;14.10;64.40;;;;;;5010788;28;20033;-70
2022/01/13 11:32:14;;;;;;;8.65;6.10;;;13.50;64.40;;;;;;5011504;28;20549;-75
2022/01/13 11:34:40;;;;;;;10.15;6.32;;;13.60;66.00;;;;;;5010092;28;20101;-73
2022/01/13 11:37:06;;;;;;;7.28;5.35;;;14.10;66.80;;;;;;5008643;28;20553;-72
2022/01/13 11:39:42;;;;;;;8.35;6.40;;;14.50;66.90;;;;;;5011257;28;20116;-69
2022/01/13 11:42:10;;;;;;;8.52;5.45;;;14.50;63.10;;;;;;5012059;28;20026;-74
2022/01/13 11:44:37;;;;;;;6.93;5.30;;;14.20;65.10;;;;;;5002437;28;20447;-69
2022/01/13 11:47:15;;;;;;;7.63;5.57;;;13.90;64.30;;;;;;5009827;28;20492;-73
2022/01/13 11:49:55;;;;;;;7.00;5.32;;;13.80;65.40;;;;;;5003286;28;20033;-70
2022/01/13 11:52:52;;;;;;;6.20;4.70;;;14.00;64.60;;;;;;5000223;28;20052;-72
2022/01/13 11:55:41;;;;;;;6.65;4.82;;;13.80;64.10;;;;;;4993446;28;20074;-72
2022/01/13 11:58:15;;;;;;;6.55;4.93;;;13.70;63.50;;;;;;5009874;28;20037;-74
2022/01/13 12:00:42;;;;;;;6.75;5.35;;;13.90;65.10;;;;;;4997123;28;20488;-72
2022/01/13 12:03:31;;;;;;;6.60;5.10;;;14.00;64.00;;;;;;5003368;28;20036;-73
2022/01/13 12:06:02;;;;;;;6.15;4.93;;;14.50;65.00;;;;;;5011118;28;20491;-75
2022/01/13 12:08:35;;;;;;;7.10;5.35;;;14.00;61.70;;;;;;5000984;28;20049;-73
2022/01/13 12:11:00;;;;;;;;;;;13.80;64.00;;;;;;5008920;28;20037;-72
2022/01/13 12:13:31;;;;;;;7.45;5.70;;;13.80;65.10;;;;;;5004452;28;19916;-72
2022/01/13 12:15:57;;;;;;;6.88;5.60;;;13.80;63.70;;;;;;5006028;28;20161;-73
2022/01/13 12:18:47;;;;;;;7.40;5.53;;;14.10;64.70;;;;;;5010321;28;20092;-73
2022/01/13 12:21:27;;;;;;;6.57;4.93;;;14.10;64.50;;;;;;5002963;28;20026;-71
2022/01/13 12:23:53;;;;;;;7.30;5.93;;;14.40;64.70;;;;;;5010655;28;20036;-73
2022/01/13 12:26:33;;;;;;;7.50;6.15;;;14.20;62.20;;;;;;4999556;28;20033;-70
2022/01/13 12:29:12;;;;;;;6.65;5.50;;;13.80;64.10;;;;;;5008738;28;20025;-68
2022/01/13 12:32:08;;;;;;;5.90;4.97;;;13.40;64.40;;;;;;5004708;28;20061;-69
2022/01/13 12:34:34;;;;;;;6.05;4.97;;;14.00;66.80;;;;;;4991914;28;20046;-69
2022/01/13 12:37:11;;;;;;;5.60;4.20;;;14.30;64.50;;;;;;5007638;28;20042;-73
2022/01/13 12:39:50;;;;;;;6.20;4.30;;;14.20;64.30;;;;;;5005374;28;20041;-72
2022/01/13 12:42:24;;;;;;;8.18;6.28;;;14.00;61.80;;;;;;4998382;28;20030;-75
2022/01/13 12:47:37;;;;;;;7.35;5.43;;;13.60;63.40;;;;;;5009067;28;20040;-74
2022/01/13 12:50:17;;;;;;;7.28;4.93;;;13.50;63.10;;;;;;5000362;28;20048;-75
2022/01/13 12:52:43;;;;;;;7.00;4.57;;;13.10;64.30;;;;;;5008880;28;20112;-73
2022/01/13 12:55:09;;;;;;;6.22;5.15;;;13.10;64.20;;;;;;5005719;28;20117;-73
2022/01/13 12:57:34;;;;;;;6.60;4.80;;;12.90;64.10;;;;;;5004906;28;20079;-72
2022/01/13 13:00:02;;;;;;;6.22;4.90;;;12.90;64.50;;;;;;5009555;28;20045;-73
2022/01/13 13:02:28;;;;;;;5.70;4.32;;;12.60;64.00;;;;;;5006907;28;20523;-73
2022/01/13 13:04:54;;;;;;;6.30;4.80;;;12.90;65.30;;;;;;5007915;28;20030;-73
2022/01/13 13:07:21;;;;;;;6.47;4.50;;;12.60;63.60;;;;;;5004765;28;20026;-73
2022/01/13 13:09:46;;;;;;;7.38;4.03;;;12.80;66.60;;;;;;5005027;28;20046;-73
2022/01/13 13:12:24;;;;;;;5.90;4.20;;;12.50;63.90;;;;;;5010736;28;20029;-73
2022/01/13 13:17:38;;;;;;;5.13;3.75;;;12.00;65.70;;;;;;5008602;28;20064;-73
2022/01/13 13:20:05;;;;;;;6.15;3.90;;;12.40;66.30;;;;;;5003714;28;20045;-73
2022/01/13 13:22:45;;;;;;;4.25;3.20;;;12.50;65.40;;;;;;5008324;28;20149;-73
2022/01/13 13:25:11;;;;;;;6.15;3.90;;;12.90;67.10;;;;;;5005291;28;20554;-73
2022/01/13 13:27:36;;;;;;;5.88;4.35;;;13.20;64.40;;;;;;5004306;28;20034;-73
2022/01/13 13:30:03;;;;;;;5.15;3.72;;;12.90;63.50;;;;;;5010084;28;20471;-74
2022/01/13 13:32:29;;;;;;;4.35;3.47;;;12.30;63.80;;;;;;5000134;28;20513;-72
2022/01/13 13:34:55;;;;;;;5.70;4.07;;;12.50;65.20;;;;;;5007891;28;20045;-74
2022/01/13 13:37:21;;;;;;;4.55;3.22;;;12.30;63.80;;;;;;5004174;28;20125;-73
2022/01/13 13:39:47;;;;;;;5.97;3.92;;;12.50;65.50;;;;;;5004799;28;20041;-73
2022/01/13 13:42:13;;;;;;;5.47;3.70;;;12.40;65.60;;;;;;5010183;28;20038;-70